createdAt,value
2022-12-03T00:00:19.634Z,20.40
2022-12-03T00:02:46.138Z,29.60
2022-12-03T00:05:12.729Z,20.50
2022-12-03T00:07:39.182Z,27.13
2022-12-03T00:10:06.563Z,30.38
2022-12-03T00:12:33.055Z,26.52
2022-12-03T00:14:59.480Z,21.92
2022-12-03T00:17:25.925Z,26.20
2022-12-03T00:19:52.310Z,25.38
2022-12-03T00:22:18.737Z,24.45
2022-12-03T00:24:45.580Z,27.55
2022-12-03T00:27:12.014Z,24.77
2022-12-03T00:29:38.411Z,27.48
2022-12-03T00:32:05.024Z,21.65
2022-12-03T00:34:31.384Z,24.42
2022-12-03T00:36:57.751Z,28.52
2022-12-03T00:39:24.107Z,26.33
2022-12-03T00:41:50.474Z,21.90
2022-12-03T00:44:16.896Z,27.33
2022-12-03T00:46:43.314Z,26.88
2022-12-03T00:49:09.842Z,28.90
2022-12-03T00:51:36.262Z,28.90
2022-12-03T00:54:02.801Z,28.58
2022-12-03T00:56:29.209Z,26.20
2022-12-03T00:58:55.626Z,28.75
2022-12-03T01:01:22.095Z,23.80
2022-12-03T01:03:48.567Z,30.20
2022-12-03T01:06:14.977Z,28.55
2022-12-03T01:08:41.401Z,24.75
2022-12-03T01:11:27.772Z,29.23
2022-12-03T01:13:54.154Z,27.77
2022-12-03T01:16:20.637Z,30.85
2022-12-03T01:18:47.107Z,24.75
2022-12-03T01:21:13.507Z,27.15
2022-12-03T01:23:39.951Z,32.47
2022-12-03T01:26:06.374Z,30.27
2022-12-03T01:28:32.822Z,31.17
2022-12-03T01:31:18.036Z,29.80
2022-12-03T01:33:44.465Z,27.95
2022-12-03T01:36:10.834Z,26.17
2022-12-03T01:38:37.202Z,20.67
2022-12-03T01:41:08.556Z,27.17
2022-12-03T01:43:38.063Z,29.70
2022-12-03T01:46:04.579Z,27.73
2022-12-03T01:48:33.520Z,24.33
2022-12-03T01:51:00.972Z,29.80
2022-12-03T01:53:27.412Z,25.95
2022-12-03T01:55:53.794Z,31.40
2022-12-03T01:58:24.542Z,27.52
2022-12-03T02:00:51.038Z,22.48
2022-12-03T02:03:21.176Z,28.20
2022-12-03T02:05:48.043Z,25.77
2022-12-03T02:08:43.906Z,32.53
2022-12-03T02:11:23.868Z,29.98
2022-12-03T02:13:52.611Z,26.58
2022-12-03T02:16:19.103Z,29.33
2022-12-03T02:18:45.728Z,28.85
2022-12-03T02:21:24.129Z,29.63
2022-12-03T02:24:15.469Z,27.83
2022-12-03T02:26:41.851Z,26.00
2022-12-03T02:29:08.308Z,27.33
2022-12-03T02:31:34.755Z,24.45
2022-12-03T02:34:06.136Z,26.05
2022-12-03T02:36:33.074Z,25.10
2022-12-03T02:38:59.567Z,17.48
2022-12-03T02:41:44.392Z,30.33
2022-12-03T02:44:10.894Z,29.17
2022-12-03T02:46:37.413Z,26.92
2022-12-03T02:49:05.583Z,27.50
2022-12-03T02:51:32.826Z,25.90
2022-12-03T02:53:59.585Z,25.80
2022-12-03T02:56:28.550Z,27.60
2022-12-03T02:58:57.818Z,28.38
2022-12-03T03:01:24.377Z,25.35
2022-12-03T03:03:51.210Z,28.00
2022-12-03T03:06:18.496Z,22.23
2022-12-03T03:08:45.092Z,27.17
2022-12-03T03:11:11.852Z,26.45
2022-12-03T03:13:39.055Z,29.95
2022-12-03T03:16:07.217Z,21.08
2022-12-03T03:18:34.303Z,29.38
2022-12-03T03:21:00.941Z,29.08
2022-12-03T03:23:27.442Z,26.70
2022-12-03T03:26:00.743Z,26.73
2022-12-03T03:28:28.529Z,28.95
2022-12-03T03:30:55.674Z,26.23
2022-12-03T03:33:22.207Z,28.33
2022-12-03T03:35:49.176Z,26.05
2022-12-03T03:38:17.836Z,28.20
2022-12-03T03:40:44.423Z,28.90
2022-12-03T03:43:11.942Z,29.08
2022-12-03T03:45:38.385Z,31.08
2022-12-03T03:48:04.987Z,24.75
2022-12-03T03:50:31.695Z,27.85
2022-12-03T03:52:59.047Z,34.38
2022-12-03T03:55:25.586Z,28.48
2022-12-03T03:57:51.978Z,28.25
2022-12-03T04:00:18.823Z,27.90
2022-12-03T04:02:45.470Z,29.52
2022-12-03T04:05:17.591Z,33.38
2022-12-03T04:07:44.115Z,25.10
2022-12-03T04:10:29.648Z,29.38
2022-12-03T04:12:56.206Z,24.13
2022-12-03T04:15:23.014Z,30.30
2022-12-03T04:18:09.749Z,28.98
2022-12-03T04:20:36.778Z,27.77
2022-12-03T04:23:03.523Z,32.53
2022-12-03T04:25:48.503Z,25.98
2022-12-03T04:28:33.626Z,28.35
2022-12-03T04:31:00.073Z,32.83
2022-12-03T04:33:45.029Z,29.48
2022-12-03T04:36:11.438Z,31.52
2022-12-03T04:38:37.859Z,28.95
2022-12-03T04:41:04.437Z,26.20
2022-12-03T04:43:32.904Z,27.92
2022-12-03T04:45:59.878Z,29.23
2022-12-03T04:48:26.538Z,34.17
2022-12-03T04:50:53.094Z,30.90
2022-12-03T04:53:19.765Z,32.47
2022-12-03T04:55:46.161Z,34.20
2022-12-03T04:58:12.527Z,17.48
2022-12-03T05:00:39.103Z,29.77
2022-12-03T05:03:05.517Z,29.95
2022-12-03T05:05:31.969Z,30.77
2022-12-03T05:07:58.344Z,34.00
2022-12-03T05:10:24.774Z,27.58
2022-12-03T05:12:51.136Z,25.95
2022-12-03T05:15:17.546Z,32.53
2022-12-03T05:17:43.897Z,35.47
2022-12-03T05:20:29.570Z,32.15
2022-12-03T05:22:55.986Z,32.70
2022-12-03T05:25:22.348Z,30.70
2022-12-03T05:27:48.794Z,30.40
2022-12-03T05:30:15.252Z,28.90
2022-12-03T05:32:41.667Z,27.38
2022-12-03T05:35:09.243Z,28.75
2022-12-03T05:37:35.606Z,27.63
2022-12-03T05:40:02.035Z,32.05
2022-12-03T05:42:47.030Z,30.60
2022-12-03T05:45:13.462Z,28.75
2022-12-03T05:47:39.839Z,30.13
2022-12-03T05:50:07.016Z,31.75
2022-12-03T05:52:33.419Z,24.42
2022-12-03T05:54:59.838Z,23.92
2022-12-03T05:57:26.280Z,32.55
2022-12-03T05:59:52.647Z,28.67
2022-12-03T06:02:19.303Z,26.05
2022-12-03T06:04:45.826Z,23.35
2022-12-03T06:07:14.206Z,24.55
2022-12-03T06:09:40.980Z,32.38
2022-12-03T06:12:08.631Z,33.47
2022-12-03T06:14:35.688Z,28.35
2022-12-03T06:17:02.314Z,35.70
2022-12-03T06:19:28.682Z,31.65
2022-12-03T06:21:55.432Z,28.45
2022-12-03T06:24:21.861Z,35.10
2022-12-03T06:26:48.290Z,33.65
2022-12-03T06:29:14.653Z,36.42
2022-12-03T06:31:41.037Z,29.42
2022-12-03T06:34:07.436Z,29.05
2022-12-03T06:36:33.830Z,35.78
2022-12-03T06:39:00.208Z,28.45
2022-12-03T06:41:26.630Z,31.70
2022-12-03T06:43:53.039Z,35.75
2022-12-03T06:46:19.521Z,36.13
2022-12-03T06:48:46.014Z,37.30
2022-12-03T06:51:12.388Z,34.28
2022-12-03T06:53:38.800Z,31.05
2022-12-03T06:56:05.531Z,29.90
2022-12-03T06:58:31.920Z,30.02
2022-12-03T07:00:58.336Z,33.80
2022-12-03T07:03:24.993Z,32.63
2022-12-03T07:05:51.400Z,35.25
2022-12-03T07:08:17.884Z,30.92
2022-12-03T07:10:44.548Z,32.80
2022-12-03T07:13:10.907Z,22.10
2022-12-03T07:15:37.318Z,27.98
2022-12-03T07:18:04.177Z,31.45
2022-12-03T07:20:30.586Z,33.95
2022-12-03T07:22:56.946Z,29.52
2022-12-03T07:25:23.921Z,28.77
2022-12-03T07:27:50.692Z,26.30
2022-12-03T07:30:17.272Z,27.73
2022-12-03T07:32:43.743Z,34.63
2022-12-03T07:35:10.274Z,30.70
2022-12-03T07:37:39.846Z,32.53
2022-12-03T07:40:06.827Z,27.98
2022-12-03T07:42:33.243Z,33.53
2022-12-03T07:44:59.760Z,27.50
2022-12-03T07:47:26.207Z,32.22
2022-12-03T07:49:52.577Z,27.90
2022-12-03T07:52:18.952Z,29.58
2022-12-03T07:54:45.339Z,24.80
2022-12-03T07:57:11.719Z,35.13
2022-12-03T07:59:38.120Z,27.75
2022-12-03T08:02:04.733Z,29.70
2022-12-03T08:04:31.194Z,30.42
2022-12-03T08:06:57.605Z,30.42
2022-12-03T08:09:24.015Z,28.10
2022-12-03T08:11:50.502Z,24.55
2022-12-03T08:14:18.479Z,29.67
2022-12-03T08:16:46.192Z,28.20
2022-12-03T08:19:14.731Z,28.30
2022-12-03T08:21:41.535Z,27.25
2022-12-03T08:24:19.752Z,22.45
2022-12-03T08:26:48.347Z,26.50
2022-12-03T08:29:18.121Z,26.45
2022-12-03T08:31:54.741Z,30.05
2022-12-03T08:34:23.751Z,29.00
2022-12-03T08:37:02.228Z,27.30
2022-12-03T08:39:34.076Z,33.47
2022-12-03T08:42:35.398Z,26.00
2022-12-03T08:47:46.854Z,31.42
2022-12-03T08:50:29.708Z,30.08
2022-12-03T08:53:29.818Z,29.27
2022-12-03T08:56:01.569Z,35.58
2022-12-03T08:58:30.865Z,22.88
2022-12-03T09:01:11.020Z,33.53
2022-12-03T09:03:39.384Z,36.50
2022-12-03T09:06:05.992Z,32.95
2022-12-03T09:08:47.523Z,29.55
2022-12-03T09:11:14.089Z,31.35
2022-12-03T09:13:41.012Z,27.58
2022-12-03T09:16:08.015Z,28.48
2022-12-03T09:18:34.494Z,36.45
2022-12-03T09:21:00.929Z,32.65
2022-12-03T09:23:27.319Z,31.92
2022-12-03T09:25:53.696Z,30.90
2022-12-03T09:28:20.091Z,30.20
2022-12-03T09:30:46.455Z,32.35
2022-12-03T09:33:13.937Z,40.88
2022-12-03T09:35:40.384Z,43.15
2022-12-03T09:38:06.807Z,21.67
2022-12-03T09:40:33.970Z,35.92
2022-12-03T09:43:00.815Z,36.10
2022-12-03T09:45:27.215Z,39.83
2022-12-03T09:47:54.886Z,37.33
2022-12-03T09:50:23.398Z,36.80
2022-12-03T09:52:51.045Z,33.85
2022-12-03T09:55:21.574Z,35.55
2022-12-03T09:57:47.975Z,42.30
2022-12-03T10:00:19.199Z,42.45
2022-12-03T10:02:47.162Z,43.75
2022-12-03T10:05:14.500Z,41.08
2022-12-03T10:07:41.445Z,40.50
2022-12-03T10:10:15.751Z,41.08
2022-12-03T10:12:42.227Z,42.63
2022-12-03T10:15:12.346Z,40.80
2022-12-03T10:17:38.739Z,36.70
2022-12-03T10:20:06.068Z,42.15
2022-12-03T10:22:37.019Z,43.55
2022-12-03T10:25:12.588Z,44.10
2022-12-03T10:27:39.674Z,44.33
2022-12-03T10:30:19.493Z,45.33
2022-12-03T10:32:50.978Z,40.83
2022-12-03T10:35:23.058Z,44.05
2022-12-03T10:38:24.820Z,45.42
2022-12-03T10:40:51.260Z,42.30
2022-12-03T10:43:26.950Z,43.83
2022-12-03T10:46:01.993Z,45.53
2022-12-03T10:48:30.321Z,31.85
2022-12-03T10:51:03.591Z,34.03
2022-12-03T10:53:31.684Z,31.60
2022-12-03T10:55:59.891Z,32.40
2022-12-03T10:58:31.403Z,29.15
2022-12-03T11:00:58.972Z,36.92
2022-12-03T11:03:27.291Z,35.78
2022-12-03T11:05:54.834Z,36.72
2022-12-03T11:08:26.987Z,31.13
2022-12-03T11:11:01.026Z,32.92
2022-12-03T11:13:33.332Z,34.60
2022-12-03T11:16:04.864Z,36.85
2022-12-03T11:18:37.387Z,28.00
2022-12-03T11:21:11.952Z,31.35
2022-12-03T11:23:44.444Z,37.15
2022-12-03T11:26:29.112Z,31.20
2022-12-03T11:28:57.623Z,27.52
2022-12-03T11:31:46.510Z,40.78
2022-12-03T11:37:10.489Z,36.10
2022-12-03T11:39:52.955Z,42.15
2022-12-03T11:42:25.661Z,39.78
2022-12-03T11:45:04.310Z,33.40
2022-12-03T11:47:39.028Z,40.92
2022-12-03T11:50:41.272Z,34.50
2022-12-03T11:53:14.112Z,40.40
2022-12-03T11:55:44.425Z,44.33
2022-12-03T12:00:50.723Z,36.45
2022-12-03T12:03:49.914Z,35.22
2022-12-03T12:06:18.897Z,38.60
2022-12-03T12:08:51.408Z,30.00
2022-12-03T12:11:30.621Z,42.00
2022-12-03T12:14:24.022Z,37.72
2022-12-03T12:16:52.539Z,37.67
2022-12-03T12:19:36.955Z,34.28
2022-12-03T12:22:15.465Z,41.70
2022-12-03T12:24:47.875Z,40.72
2022-12-03T12:27:34.525Z,38.95
2022-12-03T12:30:12.962Z,43.58
2022-12-03T12:32:51.399Z,47.70
2022-12-03T12:35:17.778Z,36.88
2022-12-03T12:37:58.076Z,34.90
2022-12-03T12:40:30.900Z,42.40
2022-12-03T12:43:02.190Z,35.20
2022-12-03T12:45:35.122Z,36.72
2022-12-03T12:48:09.969Z,44.75
2022-12-03T12:50:39.733Z,44.28
2022-12-03T12:53:24.800Z,46.25
2022-12-03T12:56:02.319Z,49.60
2022-12-03T12:58:31.942Z,46.53
2022-12-03T13:01:01.105Z,44.60
2022-12-03T13:03:34.772Z,48.40
2022-12-03T13:06:02.287Z,42.50
2022-12-03T13:08:32.245Z,38.83
2022-12-03T13:11:00.180Z,48.25
2022-12-03T13:13:43.346Z,40.67
2022-12-03T13:16:18.559Z,45.33
2022-12-03T13:18:47.224Z,41.00
2022-12-03T13:21:24.508Z,38.58
2022-12-03T13:23:56.471Z,43.08
2022-12-03T13:26:37.755Z,49.28
2022-12-03T13:29:14.996Z,44.72
2022-12-03T13:31:44.390Z,49.67
2022-12-03T13:34:16.952Z,46.22
2022-12-03T13:36:45.139Z,47.65
2022-12-03T13:39:18.726Z,46.50
2022-12-03T13:42:03.658Z,34.88
2022-12-03T13:44:31.943Z,37.63
2022-12-03T13:47:06.972Z,39.63
2022-12-03T13:49:34.510Z,39.30
2022-12-03T13:52:00.926Z,38.13
2022-12-03T13:54:29.347Z,25.10
2022-12-03T13:56:55.737Z,35.15
2022-12-03T13:59:26.143Z,37.33
2022-12-03T14:01:52.958Z,35.45
2022-12-03T14:04:19.359Z,30.27
2022-12-03T14:06:45.751Z,31.20
2022-12-03T14:09:12.216Z,31.23
2022-12-03T14:11:57.285Z,35.28
2022-12-03T14:14:29.805Z,32.88
2022-12-03T14:16:59.880Z,32.38
2022-12-03T14:19:26.765Z,29.83
2022-12-03T14:21:53.213Z,31.98
2022-12-03T14:24:19.838Z,28.27
2022-12-03T14:26:49.170Z,31.85
2022-12-03T14:29:15.632Z,27.65
2022-12-03T14:31:42.555Z,30.52
2022-12-03T14:34:09.078Z,35.35
2022-12-03T14:36:35.462Z,23.50
2022-12-03T14:39:01.849Z,29.88
2022-12-03T14:41:46.738Z,32.72
2022-12-03T14:44:13.179Z,31.50
2022-12-03T14:46:39.611Z,34.03
2022-12-03T14:49:06.097Z,34.63
2022-12-03T14:51:32.644Z,31.88
2022-12-03T14:53:59.215Z,35.13
2022-12-03T14:56:25.639Z,37.85
2022-12-03T14:58:55.003Z,38.97
2022-12-03T15:01:21.482Z,31.40
2022-12-03T15:03:47.914Z,27.92
2022-12-03T15:06:14.340Z,32.35
2022-12-03T15:08:41.104Z,38.35
2022-12-03T15:11:07.696Z,35.00
2022-12-03T15:13:34.126Z,35.55
2022-12-03T15:16:00.485Z,22.15
2022-12-03T15:18:26.918Z,38.58
2022-12-03T15:20:53.291Z,33.13
2022-12-03T15:23:19.643Z,33.88
2022-12-03T15:25:46.832Z,28.55
2022-12-03T15:28:13.207Z,30.88
2022-12-03T15:30:39.664Z,37.47
2022-12-03T15:33:06.287Z,36.05
2022-12-03T15:35:32.879Z,40.78
2022-12-03T15:37:59.655Z,38.60
2022-12-03T15:40:26.280Z,30.42
2022-12-03T15:42:52.731Z,38.28
2022-12-03T15:45:19.114Z,38.28
2022-12-03T15:47:45.832Z,39.38
2022-12-03T15:50:13.964Z,40.40
2022-12-03T15:52:40.595Z,39.60
2022-12-03T15:55:07.515Z,37.10
2022-12-03T15:57:33.931Z,39.15
2022-12-03T16:00:00.384Z,31.80
2022-12-03T16:02:33.460Z,41.33
2022-12-03T16:05:01.357Z,34.65
2022-12-03T16:07:27.888Z,47.90
2022-12-03T16:09:55.142Z,38.90
2022-12-03T16:12:21.654Z,47.08
2022-12-03T16:14:48.074Z,44.80
2022-12-03T16:17:14.575Z,34.30
2022-12-03T16:19:40.935Z,40.40
2022-12-03T16:22:07.308Z,38.63
2022-12-03T16:24:33.710Z,36.30
2022-12-03T16:27:00.128Z,39.22
2022-12-03T16:29:26.492Z,40.33
2022-12-03T16:31:52.890Z,41.10
2022-12-03T16:34:19.325Z,46.45
2022-12-03T16:36:45.752Z,48.72
2022-12-03T16:39:12.739Z,46.38
2022-12-03T16:41:39.496Z,50.10
2022-12-03T16:44:07.650Z,51.58
2022-12-03T16:46:34.144Z,45.45
2022-12-03T16:49:00.609Z,38.85
2022-12-03T16:51:28.041Z,39.88
2022-12-03T16:53:54.802Z,44.80
2022-12-03T16:56:21.199Z,42.92
2022-12-03T16:58:47.612Z,41.28
2022-12-03T17:01:14.052Z,42.97
2022-12-03T17:03:40.665Z,50.58
2022-12-03T17:06:07.223Z,44.85
2022-12-03T17:08:33.775Z,36.45
2022-12-03T17:11:00.162Z,44.28
2022-12-03T17:13:26.656Z,38.00
2022-12-03T17:15:53.078Z,41.40
2022-12-03T17:18:19.536Z,50.95
2022-12-03T17:20:45.966Z,45.78
2022-12-03T17:23:12.427Z,41.22
2022-12-03T17:25:38.834Z,43.80
2022-12-03T17:28:05.268Z,46.97
2022-12-03T17:30:31.663Z,37.05
2022-12-03T17:32:58.072Z,45.38
2022-12-03T17:35:25.028Z,47.20
2022-12-03T17:37:51.387Z,53.10
2022-12-03T17:40:17.784Z,45.15
2022-12-03T17:42:44.164Z,43.85
2022-12-03T17:45:11.099Z,47.92
2022-12-03T17:47:37.538Z,48.58
2022-12-03T17:50:04.135Z,54.15
2022-12-03T17:52:30.553Z,48.95
2022-12-03T17:55:18.074Z,50.42
2022-12-03T17:57:43.328Z,43.78
2022-12-03T18:00:10.289Z,51.40
2022-12-03T18:02:36.716Z,36.45
2022-12-03T18:05:03.693Z,45.80
2022-12-03T18:07:30.178Z,44.80
2022-12-03T18:09:57.072Z,48.83
2022-12-03T18:12:23.947Z,50.55
2022-12-03T18:14:50.351Z,48.65
2022-12-03T18:17:16.745Z,46.75
2022-12-03T18:19:43.149Z,58.55
2022-12-03T18:22:09.783Z,44.88
2022-12-03T18:24:36.234Z,41.30
2022-12-03T18:27:02.667Z,47.60
2022-12-03T18:29:29.097Z,49.50
2022-12-03T18:31:55.560Z,31.92
2022-12-03T18:34:21.989Z,41.80
2022-12-03T18:36:48.743Z,49.78
2022-12-03T18:39:27.070Z,43.97
2022-12-03T18:41:53.770Z,42.60
2022-12-03T18:44:20.264Z,45.65
2022-12-03T18:46:54.835Z,43.60
2022-12-03T18:49:22.068Z,42.08
2022-12-03T18:51:49.312Z,42.90
2022-12-03T18:54:16.942Z,48.17
2022-12-03T18:56:43.305Z,42.15
2022-12-03T18:59:09.784Z,41.58
2022-12-03T19:01:36.546Z,35.78
2022-12-03T19:04:03.599Z,45.15
2022-12-03T19:06:30.492Z,42.25
2022-12-03T19:08:57.575Z,47.95
2022-12-03T19:11:24.312Z,44.45
2022-12-03T19:13:51.231Z,42.72
2022-12-03T19:16:17.668Z,50.60
2022-12-03T19:18:44.254Z,46.05
2022-12-03T19:21:15.089Z,47.55
2022-12-03T19:23:47.208Z,48.58
2022-12-03T19:26:25.455Z,43.38
2022-12-03T19:28:53.476Z,48.28
2022-12-03T19:31:20.120Z,40.83
2022-12-03T19:33:46.777Z,46.55
2022-12-03T19:36:24.545Z,45.70
2022-12-03T19:38:56.709Z,40.50
2022-12-03T19:41:26.658Z,40.08
2022-12-03T19:43:54.754Z,46.65
2022-12-03T19:46:22.626Z,38.15
2022-12-03T19:48:49.132Z,46.55
2022-12-03T19:51:33.618Z,50.25
2022-12-03T19:54:01.713Z,52.67
2022-12-03T19:56:30.204Z,41.88
2022-12-03T19:58:56.965Z,39.97
2022-12-03T20:01:28.961Z,44.35
2022-12-03T20:03:57.231Z,45.05
2022-12-03T20:06:26.903Z,48.05
2022-12-03T20:09:05.033Z,46.03
2022-12-03T20:11:33.978Z,49.35
2022-12-03T20:14:08.882Z,47.50
2022-12-03T20:16:35.907Z,50.03
2022-12-03T20:19:05.238Z,49.67
2022-12-03T20:21:33.518Z,47.30
2022-12-03T20:24:00.507Z,44.55
2022-12-03T20:26:27.511Z,51.33
2022-12-03T20:28:55.029Z,40.33
2022-12-03T20:31:23.304Z,44.67
2022-12-03T20:33:51.744Z,51.00
2022-12-03T20:36:20.573Z,49.45
2022-12-03T20:38:47.106Z,40.35
2022-12-03T20:41:15.688Z,31.73
2022-12-03T20:43:42.136Z,44.08
2022-12-03T20:46:18.934Z,45.65
2022-12-03T20:48:45.717Z,45.80
2022-12-03T20:51:15.123Z,45.85
2022-12-03T20:53:42.104Z,45.08
2022-12-03T20:56:09.114Z,43.13
2022-12-03T20:58:35.960Z,42.85
2022-12-03T21:01:16.113Z,46.60
2022-12-03T21:03:42.918Z,46.63
2022-12-03T21:06:10.255Z,42.90
2022-12-03T21:08:41.389Z,45.08
2022-12-03T21:11:10.192Z,47.17
2022-12-03T21:13:36.601Z,42.85
2022-12-03T21:16:05.763Z,48.53
2022-12-03T21:18:32.579Z,40.05
2022-12-03T21:21:00.887Z,47.58
2022-12-03T21:23:28.600Z,42.08
2022-12-03T21:26:00.749Z,33.38
2022-12-03T21:28:27.127Z,45.65
2022-12-03T21:30:53.547Z,43.92
2022-12-03T21:33:20.004Z,49.50
2022-12-03T21:35:46.421Z,41.65
2022-12-03T21:38:12.946Z,46.63
2022-12-03T21:40:39.350Z,42.70
2022-12-03T21:43:05.755Z,41.47
2022-12-03T21:45:32.328Z,43.92
2022-12-03T21:47:58.860Z,45.78
2022-12-03T21:50:25.380Z,40.55
2022-12-03T21:52:52.665Z,49.15
2022-12-03T21:55:19.058Z,37.97
2022-12-03T21:57:45.439Z,36.92
2022-12-03T22:00:12.463Z,47.17
2022-12-03T22:02:40.102Z,43.05
2022-12-03T22:05:08.255Z,42.38
2022-12-03T22:07:35.482Z,41.80
2022-12-03T22:10:02.151Z,43.15
2022-12-03T22:12:28.527Z,43.83
2022-12-03T22:14:57.044Z,43.80
2022-12-03T22:17:27.214Z,46.60
2022-12-03T22:19:53.833Z,46.97
2022-12-03T22:22:20.595Z,42.67
2022-12-03T22:24:47.207Z,45.05
2022-12-03T22:27:14.350Z,46.20
2022-12-03T22:29:40.768Z,42.67
2022-12-03T22:32:07.204Z,42.83
2022-12-03T22:34:33.728Z,46.88
2022-12-03T22:37:00.095Z,40.92
2022-12-03T22:39:26.501Z,44.10
2022-12-03T22:41:52.924Z,38.88
2022-12-03T22:44:19.324Z,46.80
2022-12-03T22:46:45.784Z,48.28
2022-12-03T22:49:12.942Z,32.92
2022-12-03T22:51:39.515Z,36.95
2022-12-03T22:54:06.214Z,48.75
2022-12-03T22:56:32.931Z,44.90
2022-12-03T22:58:59.758Z,47.03
2022-12-03T23:01:29.973Z,40.58
2022-12-03T23:03:56.665Z,42.55
2022-12-03T23:06:23.675Z,40.10
2022-12-03T23:08:50.541Z,47.83
2022-12-03T23:11:17.587Z,44.10
2022-12-03T23:13:44.112Z,41.55
2022-12-03T23:16:16.383Z,43.90
2022-12-03T23:18:42.880Z,38.42
2022-12-03T23:21:09.338Z,45.63
2022-12-03T23:23:35.739Z,49.78
2022-12-03T23:26:07.538Z,47.05
2022-12-03T23:28:35.894Z,47.28
2022-12-03T23:31:03.340Z,44.33
2022-12-03T23:33:33.985Z,37.72
2022-12-03T23:36:05.618Z,44.42
2022-12-03T23:38:32.033Z,46.50
2022-12-03T23:41:06.470Z,47.10
2022-12-03T23:43:33.195Z,47.90
2022-12-03T23:46:08.056Z,48.25
2022-12-03T23:48:34.704Z,47.85
2022-12-03T23:51:05.839Z,50.35
2022-12-03T23:53:34.335Z,42.75
2022-12-03T23:56:03.980Z,49.20
2022-12-03T23:58:30.346Z,34.80
